Time;durP1;ratioP1;P1;durP2;ratioP2;P2;SDS_P1;SDS_P2;PMS_P1;PMS_P2;Temp;Humidity;BMP_temperature;BMP_pressure;BME280_temperature;BME280_humidity;BME280_pressure;Samples;Min_cycle;Max_cycle;Signal;HPM_P1;HPM_P2
2022/05/08 00:01:56;;;;;;;26.73;3.53;;;10.90;99.90;;;;;;5072624;28;20064;-47
2022/05/08 00:04:22;;;;;;;29.77;4.10;;;10.80;99.80;;;;;;5072602;28;20279;-47
2022/05/08 00:06:48;;;;;;;24.23;3.70;;;10.80;99.80;;;;;;5072183;28;20486;-48
2022/05/08 00:09:13;;;;;;;22.73;3.63;;;10.80;99.80;;;;;;5068303;28;20291;-49
2022/05/08 00:11:39;;;;;;;25.93;3.47;;;10.70;99.70;;;;;;5073314;28;20068;-46
2022/05/08 00:14:04;;;;;;;13.77;4.37;;;10.70;99.80;;;;;;5056239;28;20493;-50
2022/05/08 00:16:30;;;;;;;21.23;4.15;;;10.60;99.70;;;;;;5071769;28;20094;-50
2022/05/08 00:18:56;;;;;;;23.50;3.53;;;10.60;99.70;;;;;;5074001;28;20477;-48
2022/05/08 00:21:21;;;;;;;21.93;4.70;;;10.50;99.70;;;;;;5071602;28;20310;-47
2022/05/08 00:23:47;;;;;;;20.33;3.67;;;10.50;99.80;;;;;;5074716;28;20278;-48
2022/05/08 00:26:13;;;;;;;25.40;3.03;;;10.40;99.80;;;;;;5072990;28;20489;-50
2022/05/08 00:28:39;;;;;;;24.33;3.70;;;10.40;99.80;;;;;;5072340;28;20282;-49
2022/05/08 00:31:08;;;;;;;19.20;4.22;;;10.40;99.90;;;;;;5072038;28;20132;-49
2022/05/08 00:33:33;;;;;;;24.98;3.63;;;10.30;99.90;;;;;;5071355;28;20041;-47
2022/05/08 00:35:59;;;;;;;21.13;3.70;;;10.30;99.90;;;;;;5071977;28;20051;-47
2022/05/08 00:38:25;;;;;;;22.77;3.92;;;10.20;99.90;;;;;;5086674;28;20043;-51
2022/05/08 00:40:50;;;;;;;18.00;3.87;;;10.20;99.90;;;;;;5091739;28;20102;-49
2022/05/08 00:43:33;;;;;;;21.87;4.20;;;10.10;99.90;;;;;;5092010;28;20282;-47
2022/05/08 00:46:10;;;;;;;19.17;3.00;;;10.00;99.90;;;;;;5078121;28;20045;-47
2022/05/08 00:48:36;;;;;;;20.65;3.97;;;10.00;99.90;;;;;;5072339;28;20041;-50
2022/05/08 00:51:05;;;;;;;21.00;4.10;;;9.90;99.90;;;;;;5071842;28;20521;-47
2022/05/08 00:53:48;;;;;;;28.50;4.68;;;9.90;99.90;;;;;;5072094;28;20516;-48
2022/05/08 00:56:15;;;;;;;24.27;4.25;;;9.90;99.90;;;;;;5080098;28;20029;-46
2022/05/08 00:58:42;;;;;;;19.40;3.67;;;9.80;99.90;;;;;;5070318;28;20037;-51
2022/05/08 01:01:09;;;;;;;15.50;3.88;;;9.80;99.90;;;;;;5084434;28;20032;-48
2022/05/08 01:03:35;;;;;;;18.42;5.43;;;9.80;99.90;;;;;;5071965;28;20112;-50
2022/05/08 01:06:06;;;;;;;21.10;4.28;;;9.70;99.90;;;;;;5070679;28;20116;-47
2022/05/08 01:08:36;;;;;;;17.75;3.72;;;9.70;99.90;;;;;;5079791;28;21344;-47
2022/05/08 01:11:03;;;;;;;17.13;3.85;;;9.70;99.90;;;;;;5072937;28;20090;-48
2022/05/08 01:13:29;;;;;;;16.52;2.78;;;9.60;99.90;;;;;;5071635;28;20044;-48
2022/05/08 01:15:55;;;;;;;14.48;3.40;;;9.60;99.90;;;;;;5071343;28;20044;-47
2022/05/08 01:18:21;;;;;;;14.60;3.20;;;9.50;99.90;;;;;;5071112;28;20090;-49
2022/05/08 01:20:47;;;;;;;13.55;3.35;;;9.50;99.90;;;;;;5080238;28;20075;-47
2022/05/08 01:23:15;;;;;;;16.85;3.40;;;9.50;99.90;;;;;;5074497;28;20029;-47
2022/05/08 01:25:54;;;;;;;20.13;4.07;;;9.40;99.90;;;;;;5070949;28;20051;-48
2022/05/08 01:28:21;;;;;;;14.63;3.85;;;9.40;99.90;;;;;;5070976;28;20048;-50
2022/05/08 01:30:49;;;;;;;15.13;3.45;;;9.40;99.90;;;;;;5071948;28;20041;-46
2022/05/08 01:33:15;;;;;;;20.70;3.75;;;9.40;99.90;;;;;;5077570;28;20040;-47
2022/05/08 01:35:42;;;;;;;16.05;4.30;;;9.30;99.90;;;;;;5079321;28;20048;-47
2022/05/08 01:38:09;;;;;;;18.73;3.95;;;9.30;99.90;;;;;;5071431;28;20210;-48
2022/05/08 01:40:35;;;;;;;19.38;4.85;;;9.30;99.90;;;;;;5076177;28;20047;-47
2022/05/08 01:43:00;;;;;;;15.98;4.13;;;9.20;99.90;;;;;;5071058;28;20028;-47
2022/05/08 01:45:26;;;;;;;14.87;4.07;;;9.20;99.90;;;;;;5073574;28;20044;-49
2022/05/08 01:50:37;;;;;;;17.30;4.25;;;9.30;99.90;;;;;;5070017;28;20434;-49
2022/05/08 01:53:03;;;;;;;;;;;9.30;99.90;;;;;;5071765;28;20040;-47
2022/05/08 01:55:29;;;;;;;21.67;5.60;;;9.30;99.90;;;;;;5070856;28;20266;-50
2022/05/08 01:57:54;;;;;;;22.42;5.32;;;9.40;99.90;;;;;;5079997;28;20043;-46
2022/05/08 02:00:22;;;;;;;22.70;5.15;;;9.40;99.90;;;;;;5070419;28;20055;-52
2022/05/08 02:02:49;;;;;;;20.50;5.63;;;9.40;99.90;;;;;;5085329;28;20093;-47
2022/05/08 02:05:16;;;;;;;20.33;3.72;;;9.40;99.90;;;;;;5070923;28;20101;-51
2022/05/08 02:07:44;;;;;;;19.25;3.83;;;9.30;99.90;;;;;;5071623;28;20044;-46
2022/05/08 02:10:09;;;;;;;21.42;4.38;;;9.20;99.90;;;;;;5069785;28;20037;-49
2022/05/08 02:12:35;;;;;;;17.50;4.22;;;9.20;99.90;;;;;;5086424;28;20086;-50
2022/05/08 02:15:00;;;;;;;18.70;5.20;;;9.20;99.90;;;;;;5070257;28;20141;-46
2022/05/08 02:17:26;;;;;;;24.65;5.03;;;9.20;99.90;;;;;;5070322;28;20047;-47
2022/05/08 02:19:52;;;;;;;19.33;4.10;;;9.20;99.90;;;;;;5071187;28;20032;-47
2022/05/08 02:22:17;;;;;;;17.97;4.57;;;9.20;99.90;;;;;;5078240;28;20513;-50
2022/05/08 02:24:43;;;;;;;22.60;6.03;;;9.20;99.90;;;;;;5070325;28;20410;-46
2022/05/08 02:27:08;;;;;;;15.03;4.83;;;9.10;99.90;;;;;;5073883;28;20036;-47
2022/05/08 02:29:34;;;;;;;21.87;4.90;;;9.10;99.90;;;;;;5082213;28;20458;-47
2022/05/08 02:32:00;;;;;;;20.75;4.63;;;9.10;99.90;;;;;;5073486;28;20036;-49
2022/05/08 02:34:25;;;;;;;18.43;3.77;;;9.00;99.90;;;;;;5079654;28;20125;-46
2022/05/08 02:36:51;;;;;;;15.87;4.07;;;8.90;99.90;;;;;;5076074;28;20123;-46
2022/05/08 02:39:16;;;;;;;19.60;5.23;;;8.70;99.90;;;;;;5076834;28;20036;-49
2022/05/08 02:41:42;;;;;;;12.87;3.30;;;8.70;99.90;;;;;;5074410;28;20111;-48
2022/05/08 02:44:07;;;;;;;20.47;4.13;;;8.60;99.90;;;;;;5069786;28;20086;-46
2022/05/08 02:46:33;;;;;;;8.17;2.80;;;8.60;99.90;;;;;;5069350;28;20098;-46
2022/05/08 02:48:58;;;;;;;11.10;2.80;;;8.60;99.90;;;;;;5069018;28;20040;-47
2022/05/08 02:51:24;;;;;;;21.23;3.80;;;8.40;99.90;;;;;;5071001;28;20086;-46
2022/05/08 02:53:50;;;;;;;15.07;3.13;;;8.40;99.90;;;;;;5071015;28;20072;-47
2022/05/08 02:58:59;;;;;;;13.23;3.72;;;8.30;99.90;;;;;;5069910;28;20048;-49
2022/05/08 03:01:25;;;;;;;8.60;3.00;;;8.20;99.90;;;;;;5069521;28;20056;-47
2022/05/08 03:03:50;;;;;;;10.67;2.63;;;8.20;99.90;;;;;;5069929;28;20525;-47
2022/05/08 03:06:16;;;;;;;7.80;2.90;;;8.10;99.90;;;;;;5070445;28;20413;-47
2022/05/08 03:08:42;;;;;;;14.63;3.87;;;8.10;99.90;;;;;;5069776;28;20085;-48
2022/05/08 03:11:26;;;;;;;;;;;8.00;99.90;;;;;;5068483;28;20052;-49
2022/05/08 03:13:53;;;;;;;11.38;4.05;;;7.90;99.90;;;;;;5072417;28;20441;-46
2022/05/08 03:16:19;;;;;;;14.07;3.28;;;7.80;99.90;;;;;;5076904;28;20572;-46
2022/05/08 03:18:45;;;;;;;17.27;4.30;;;7.80;99.90;;;;;;5074881;28;20116;-47
2022/05/08 03:21:13;;;;;;;15.38;4.47;;;7.80;99.90;;;;;;5069557;28;20402;-46
2022/05/08 03:23:39;;;;;;;18.13;4.22;;;7.80;99.90;;;;;;5078368;28;20040;-47
2022/05/08 03:26:06;;;;;;;15.35;4.32;;;7.80;99.90;;;;;;5069265;28;20048;-51
2022/05/08 03:28:32;;;;;;;16.58;4.28;;;7.80;99.90;;;;;;5074150;28;20084;-48
2022/05/08 03:30:59;;;;;;;13.25;3.63;;;7.80;99.90;;;;;;5079545;28;20032;-48
2022/05/08 03:33:27;;;;;;;15.77;4.40;;;7.70;99.90;;;;;;5072390;28;20047;-47
2022/05/08 03:35:53;;;;;;;15.45;4.38;;;7.80;99.90;;;;;;5070608;28;20033;-48
2022/05/08 03:38:18;;;;;;;10.83;4.20;;;7.70;99.90;;;;;;5069139;28;20094;-46
2022/05/08 03:40:44;;;;;;;17.63;5.50;;;7.60;99.90;;;;;;5069679;28;20051;-46
2022/05/08 03:43:10;;;;;;;14.50;4.77;;;7.60;99.90;;;;;;5068645;28;20448;-48
2022/05/08 03:45:36;;;;;;;10.88;3.50;;;7.60;99.90;;;;;;5079800;28;20047;-47
2022/05/08 03:48:02;;;;;;;9.82;3.80;;;7.60;99.90;;;;;;5071082;28;20082;-49
2022/05/08 03:50:28;;;;;;;10.30;3.33;;;7.60;99.90;;;;;;5071290;28;20075;-48
2022/05/08 03:52:54;;;;;;;15.18;4.32;;;7.60;99.90;;;;;;5079285;28;20079;-48
2022/05/08 03:55:20;;;;;;;12.60;3.72;;;7.60;99.90;;;;;;5068800;28;20064;-47
2022/05/08 03:57:45;;;;;;;15.48;3.67;;;7.60;99.90;;;;;;5069100;28;20033;-47
2022/05/08 04:00:13;;;;;;;9.77;3.47;;;7.60;99.90;;;;;;5075357;28;20052;-47
2022/05/08 04:02:39;;;;;;;12.38;3.13;;;7.60;99.90;;;;;;5069131;28;20511;-50
2022/05/08 04:05:05;;;;;;;14.88;4.45;;;7.60;99.90;;;;;;5068347;28;20111;-51
2022/05/08 04:07:31;;;;;;;12.73;2.78;;;7.60;99.90;;;;;;5068812;28;20037;-48
2022/05/08 04:09:56;;;;;;;11.98;4.00;;;7.60;99.90;;;;;;5068562;28;20047;-45
2022/05/08 04:12:22;;;;;;;12.20;3.70;;;7.60;99.90;;;;;;5069226;28;20048;-46
2022/05/08 04:14:48;;;;;;;16.23;4.03;;;7.60;99.90;;;;;;5074969;28;20464;-46
2022/05/08 04:17:13;;;;;;;12.73;4.50;;;7.60;99.90;;;;;;5068115;28;20378;-46
2022/05/08 04:19:39;;;;;;;13.10;3.37;;;7.60;99.90;;;;;;5074587;28;20032;-50
2022/05/08 04:24:49;;;;;;;16.08;3.80;;;7.70;99.90;;;;;;5068894;28;21636;-45
2022/05/08 04:27:14;;;;;;;14.47;4.37;;;7.60;99.90;;;;;;5067289;28;20037;-51
2022/05/08 04:29:40;;;;;;;17.63;3.77;;;7.60;99.90;;;;;;5070482;28;20040;-46
2022/05/08 04:32:06;;;;;;;16.70;3.87;;;7.60;99.90;;;;;;5068950;28;20047;-47
2022/05/08 04:34:31;;;;;;;13.07;2.83;;;7.60;99.90;;;;;;5075682;28;20047;-50
2022/05/08 04:36:57;;;;;;;12.73;3.57;;;7.60;99.90;;;;;;5074713;28;20047;-46
2022/05/08 04:39:23;;;;;;;6.00;2.20;;;7.50;99.90;;;;;;5068845;28;20040;-46
2022/05/08 04:41:48;;;;;;;5.53;2.10;;;7.50;99.90;;;;;;5073957;28;20573;-47
2022/05/08 04:44:14;;;;;;;6.03;2.07;;;7.40;99.90;;;;;;5079241;28;20032;-47
2022/05/08 04:46:39;;;;;;;5.77;2.23;;;7.30;99.90;;;;;;5074708;28;20130;-46
2022/05/08 04:49:05;;;;;;;6.07;2.30;;;7.20;99.90;;;;;;5071802;28;20123;-46
2022/05/08 04:51:31;;;;;;;5.13;2.10;;;7.20;99.90;;;;;;5071712;28;20162;-50
2022/05/08 04:53:56;;;;;;;6.38;2.00;;;7.20;99.90;;;;;;5072946;28;20123;-47
2022/05/08 04:56:22;;;;;;;8.87;2.10;;;7.20;99.90;;;;;;5071520;28;20036;-48
2022/05/08 04:58:48;;;;;;;7.60;2.65;;;7.20;99.90;;;;;;5071589;28;20040;-47
2022/05/08 05:01:14;;;;;;;4.65;2.92;;;7.30;99.90;;;;;;5071650;28;20410;-46
2022/05/08 05:03:41;;;;;;;4.97;2.55;;;7.30;99.90;;;;;;5082548;28;20037;-49
2022/05/08 05:06:07;;;;;;;11.05;3.55;;;7.40;99.90;;;;;;5072040;28;20068;-47
2022/05/08 05:08:33;;;;;;;9.13;3.58;;;7.40;99.90;;;;;;5071704;28;20075;-48
2022/05/08 05:10:58;;;;;;;15.73;3.60;;;7.50;99.90;;;;;;5078055;28;20039;-52
2022/05/08 05:13:25;;;;;;;12.55;4.10;;;7.50;99.90;;;;;;5073942;28;20041;-46
2022/05/08 05:15:51;;;;;;;20.00;4.68;;;7.50;99.90;;;;;;5075377;28;20137;-46
2022/05/08 05:18:17;;;;;;;13.48;3.70;;;7.60;99.90;;;;;;5070727;28;20071;-46
2022/05/08 05:20:45;;;;;;;10.75;3.92;;;7.70;99.90;;;;;;5075083;28;20500;-48
2022/05/08 05:23:11;;;;;;;14.93;4.65;;;7.70;99.90;;;;;;5080594;28;20123;-49
2022/05/08 05:25:36;;;;;;;12.73;4.22;;;7.70;99.90;;;;;;5080248;28;20036;-46
2022/05/08 05:28:02;;;;;;;15.17;4.97;;;7.80;99.90;;;;;;5079786;28;20508;-46
2022/05/08 05:30:28;;;;;;;18.17;5.00;;;7.90;99.90;;;;;;5069420;28;20376;-47
2022/05/08 05:32:53;;;;;;;16.63;5.30;;;8.00;99.90;;;;;;5070161;28;20362;-46
2022/05/08 05:35:19;;;;;;;21.03;6.03;;;8.10;99.90;;;;;;5070651;28;20121;-46
2022/05/08 05:37:44;;;;;;;13.10;5.50;;;8.20;99.90;;;;;;5071966;28;20044;-46
2022/05/08 05:40:11;;;;;;;18.07;5.17;;;8.30;99.90;;;;;;5071230;28;20040;-46
2022/05/08 05:42:36;;;;;;;;;;;8.40;99.90;;;;;;5082250;28;20032;-46
2022/05/08 05:45:02;;;;;;;14.93;4.50;;;8.40;99.90;;;;;;5070702;28;19920;-46
2022/05/08 05:50:12;;;;;;;15.18;4.45;;;8.60;99.90;;;;;;5070960;28;20048;-46
2022/05/08 05:52:37;;;;;;;14.03;4.93;;;8.70;99.90;;;;;;5072092;28;20477;-50
2022/05/08 05:55:06;;;;;;;19.07;5.73;;;8.90;99.90;;;;;;5070301;28;20085;-47
2022/05/08 05:57:35;;;;;;;18.33;5.60;;;9.00;99.90;;;;;;5070569;28;20082;-50
2022/05/08 06:00:05;;;;;;;16.67;4.80;;;9.20;99.90;;;;;;5063520;28;20040;-47
2022/05/08 06:02:31;;;;;;;24.27;4.88;;;9.30;99.90;;;;;;5071056;28;20068;-46
2022/05/08 06:04:57;;;;;;;33.83;5.03;;;9.50;99.90;;;;;;5070089;28;20063;-46
2022/05/08 06:07:22;;;;;;;10.65;3.40;;;9.60;99.90;;;;;;5082280;28;20547;-46
2022/05/08 06:09:48;;;;;;;18.35;4.28;;;9.80;99.90;;;;;;5074904;28;20105;-51
2022/05/08 06:12:13;;;;;;;22.93;3.47;;;9.90;99.90;;;;;;5077537;28;20393;-46
2022/05/08 06:14:40;;;;;;;17.33;3.63;;;10.10;99.90;;;;;;5079879;28;20037;-48
2022/05/08 06:17:05;;;;;;;;;;;10.20;99.90;;;;;;5070524;28;20490;-46
2022/05/08 06:19:31;;;;;;;15.68;3.28;;;10.30;99.90;;;;;;5079334;28;19924;-47
2022/05/08 06:21:57;;;;;;;12.30;3.33;;;10.40;99.90;;;;;;5070213;28;20562;-51
2022/05/08 06:24:23;;;;;;;14.40;3.97;;;10.40;99.90;;;;;;5070632;28;20282;-48
2022/05/08 06:26:48;;;;;;;14.68;5.45;;;10.50;99.90;;;;;;5070438;28;20190;-46
2022/05/08 06:29:14;;;;;;;10.93;3.65;;;10.70;99.90;;;;;;5071145;28;20063;-45
2022/05/08 06:31:39;;;;;;;14.33;3.47;;;10.70;99.90;;;;;;5072998;28;20024;-46
2022/05/08 06:34:06;;;;;;;15.17;2.87;;;10.80;99.90;;;;;;5069295;28;20058;-49
2022/05/08 06:36:32;;;;;;;19.02;3.80;;;10.90;99.90;;;;;;5073050;28;20075;-46
2022/05/08 06:38:58;;;;;;;12.20;3.55;;;11.00;99.90;;;;;;5084904;28;20064;-46
2022/05/08 06:41:24;;;;;;;12.23;3.28;;;11.00;99.90;;;;;;5082231;28;20108;-47
2022/05/08 06:43:50;;;;;;;15.93;3.40;;;11.10;99.90;;;;;;5086895;28;20032;-47
2022/05/08 06:46:15;;;;;;;11.05;2.75;;;11.10;99.70;;;;;;5069594;28;20058;-46
2022/05/08 06:48:41;;;;;;;8.50;2.45;;;11.20;99.60;;;;;;5067486;28;20123;-49
2022/05/08 06:51:07;;;;;;;15.53;3.73;;;11.30;99.30;;;;;;5071291;28;20036;-48
2022/05/08 06:53:32;;;;;;;9.13;2.37;;;11.40;99.50;;;;;;5072098;28;20287;-50
2022/05/08 06:55:58;;;;;;;11.02;2.10;;;11.50;99.00;;;;;;5067795;28;20045;-48
2022/05/08 06:58:27;;;;;;;17.52;2.25;;;11.60;98.90;;;;;;5069117;28;20504;-47
2022/05/08 07:03:37;;;;;;;7.93;2.00;;;11.60;98.10;;;;;;5075213;28;20123;-48
2022/05/08 07:06:02;;;;;;;11.00;1.70;;;11.60;97.70;;;;;;5068769;28;20115;-46
2022/05/08 07:08:28;;;;;;;12.15;2.33;;;11.60;97.60;;;;;;5070939;28;20044;-51
2022/05/08 07:10:54;;;;;;;7.72;1.90;;;11.60;97.40;;;;;;5082314;28;20085;-49
2022/05/08 07:13:26;;;;;;;9.10;1.30;;;11.60;97.50;;;;;;5070100;28;20040;-46
2022/05/08 07:15:53;;;;;;;5.60;1.30;;;11.70;97.30;;;;;;5070271;28;20044;-47
2022/05/08 07:18:19;;;;;;;9.15;2.03;;;11.70;96.80;;;;;;5069013;28;20040;-46
2022/05/08 07:20:45;;;;;;;6.05;1.90;;;11.70;96.80;;;;;;5061782;28;20045;-47
2022/05/08 07:23:11;;;;;;;9.18;1.60;;;11.70;96.50;;;;;;5059760;28;20040;-48
2022/05/08 07:25:41;;;;;;;;;;;11.70;96.10;;;;;;5066645;28;20533;-46
2022/05/08 07:28:06;;;;;;;7.32;1.08;;;11.70;96.20;;;;;;5059646;28;20385;-50
2022/05/08 07:30:32;;;;;;;7.20;1.73;;;11.70;96.00;;;;;;5057061;28;20043;-47
2022/05/08 07:33:00;;;;;;;11.33;2.03;;;11.70;96.10;;;;;;5063462;28;20841;-46
2022/05/08 07:38:10;;;;;;;14.32;2.15;;;11.90;96.10;;;;;;5065920;28;20044;-48
2022/05/08 07:40:36;;;;;;;9.23;1.73;;;12.00;95.70;;;;;;5073206;28;20383;-46
2022/05/08 07:43:02;;;;;;;13.60;2.35;;;12.10;95.40;;;;;;5069444;28;20068;-46
2022/05/08 07:45:28;;;;;;;14.48;3.20;;;12.10;95.20;;;;;;5077712;28;20043;-50
2022/05/08 07:47:55;;;;;;;8.52;1.65;;;12.10;95.20;;;;;;5069208;28;20052;-46
2022/05/08 07:50:21;;;;;;;7.22;1.42;;;12.10;95.00;;;;;;5078503;28;20046;-48
2022/05/08 07:52:46;;;;;;;16.67;2.20;;;12.10;94.80;;;;;;5069007;28;20474;-46
2022/05/08 07:55:12;;;;;;;9.52;1.70;;;12.20;94.90;;;;;;5069957;28;20114;-48
2022/05/08 07:57:37;;;;;;;9.10;1.60;;;12.30;95.20;;;;;;5066323;28;20033;-49
2022/05/08 08:00:04;;;;;;;10.53;1.50;;;12.50;94.60;;;;;;5080751;28;20783;-46
2022/05/08 08:02:30;;;;;;;13.57;2.03;;;12.60;94.40;;;;;;5069256;28;20037;-47
2022/05/08 08:04:55;;;;;;;10.40;1.70;;;12.60;94.50;;;;;;5068948;28;20563;-48
2022/05/08 08:07:21;;;;;;;9.93;1.83;;;12.80;94.30;;;;;;5069191;28;20583;-46
2022/05/08 08:09:47;;;;;;;9.40;1.77;;;12.90;94.00;;;;;;5073868;28;20508;-47
2022/05/08 08:12:12;;;;;;;10.90;1.95;;;13.00;94.80;;;;;;5068268;28;20121;-47
2022/05/08 08:14:38;;;;;;;10.63;1.45;;;13.10;94.20;;;;;;5079497;28;20489;-49
2022/05/08 08:17:04;;;;;;;6.90;1.05;;;13.20;93.80;;;;;;5069973;28;20354;-46
2022/05/08 08:19:30;;;;;;;11.47;2.40;;;13.20;93.80;;;;;;5058850;28;20041;-48
2022/05/08 08:21:56;;;;;;;7.75;2.42;;;13.20;93.30;;;;;;5053134;28;20279;-46
2022/05/08 08:24:21;;;;;;;4.68;1.08;;;13.10;93.50;;;;;;5061648;28;20036;-46
2022/05/08 08:26:47;;;;;;;8.32;1.33;;;13.20;93.10;;;;;;5071959;28;20492;-47
2022/05/08 08:29:14;;;;;;;10.55;1.25;;;13.10;92.70;;;;;;5074294;28;20067;-48
2022/05/08 08:31:39;;;;;;;5.18;1.23;;;13.10;92.70;;;;;;5071384;28;20440;-47
2022/05/08 08:34:05;;;;;;;5.43;1.27;;;13.00;92.60;;;;;;5072353;28;20040;-49
2022/05/08 08:36:31;;;;;;;16.20;3.55;;;13.10;92.70;;;;;;5072114;28;20490;-51
2022/05/08 08:38:56;;;;;;;8.55;1.73;;;13.10;92.60;;;;;;5081442;28;20122;-46
2022/05/08 08:41:27;;;;;;;9.20;1.63;;;13.20;92.70;;;;;;5076926;28;20063;-46
2022/05/08 08:49:31;;;;;;;9.93;1.60;;;13.50;92.60;;;;;;5072086;28;20460;-46
2022/05/08 08:51:58;;;;;;;9.90;1.13;;;13.60;92.20;;;;;;5075477;28;20035;-49
2022/05/08 08:54:24;;;;;;;4.60;1.30;;;13.70;92.80;;;;;;5092812;28;20036;-50
2022/05/08 08:56:50;;;;;;;10.80;1.60;;;13.80;92.40;;;;;;5089575;28;20036;-47
2022/05/08 08:59:16;;;;;;;8.63;1.95;;;13.90;91.80;;;;;;5071787;28;20040;-47
2022/05/08 09:01:45;;;;;;;6.13;1.00;;;14.00;91.40;;;;;;5072400;28;20497;-48
2022/05/08 09:04:12;;;;;;;16.33;1.70;;;14.10;91.30;;;;;;5084729;28;20401;-47
2022/05/08 09:06:39;;;;;;;6.75;1.00;;;14.10;91.00;;;;;;5089552;28;20525;-47
2022/05/08 09:09:27;;;;;;;11.15;1.83;;;14.10;91.10;;;;;;5051939;28;20037;-49
2022/05/08 09:11:53;;;;;;;5.30;2.17;;;14.20;90.60;;;;;;5055214;28;20094;-46
2022/05/08 09:14:33;;;;;;;7.78;2.42;;;14.30;91.20;;;;;;5072123;28;20048;-49
2022/05/08 09:17:01;;;;;;;6.00;1.42;;;14.40;90.90;;;;;;5071141;28;20079;-46
2022/05/08 09:19:44;;;;;;;13.10;1.50;;;14.50;90.80;;;;;;5069975;28;20040;-47
2022/05/08 09:22:12;;;;;;;83.82;6.55;;;14.50;90.20;;;;;;5074007;28;20119;-49
2022/05/08 09:24:52;;;;;;;11.27;2.05;;;14.60;89.40;;;;;;5078451;28;20472;-49
2022/05/08 09:27:18;;;;;;;9.32;1.70;;;14.70;89.30;;;;;;5075755;28;20127;-48
2022/05/08 09:29:44;;;;;;;7.72;1.80;;;14.80;88.90;;;;;;5076971;28;20498;-49
2022/05/08 09:32:30;;;;;;;10.10;1.52;;;14.80;89.40;;;;;;5071511;28;20029;-49
2022/05/08 09:34:59;;;;;;;8.95;1.23;;;14.90;90.10;;;;;;5069413;28;20044;-48
2022/05/08 09:37:25;;;;;;;13.15;1.73;;;14.90;88.20;;;;;;5075993;28;20044;-47
2022/05/08 09:39:51;;;;;;;8.27;1.20;;;15.00;89.50;;;;;;5071371;28;20482;-48
2022/05/08 09:42:37;;;;;;;9.70;1.38;;;15.00;88.60;;;;;;5082750;28;20036;-49
2022/05/08 09:45:05;;;;;;;5.88;1.42;;;15.10;89.30;;;;;;5085687;28;20050;-46
2022/05/08 09:47:47;;;;;;;28.80;2.50;;;15.20;89.00;;;;;;5071050;28;20368;-46
2022/05/08 09:50:14;;;;;;;6.28;1.33;;;15.30;86.50;;;;;;5070911;28;20049;-49
2022/05/08 09:52:42;;;;;;;5.10;0.82;;;15.30;86.80;;;;;;5071493;28;20059;-46
2022/05/08 09:55:09;;;;;;;5.75;1.20;;;15.40;86.30;;;;;;5070674;28;20374;-47
2022/05/08 09:57:35;;;;;;;7.63;1.42;;;15.40;86.90;;;;;;5073036;28;20357;-47
2022/05/08 10:00:03;;;;;;;;;;;15.30;85.90;;;;;;5079320;28;20036;-51
2022/05/08 10:02:29;;;;;;;8.23;1.27;;;15.30;86.20;;;;;;5070516;28;19930;-47
2022/05/08 10:04:54;;;;;;;;;;;15.30;85.80;;;;;;5070255;28;20048;-47
2022/05/08 10:07:21;;;;;;;9.52;1.33;;;15.30;86.10;;;;;;5072879;28;20031;-47
2022/05/08 10:15:20;;;;;;;7.78;1.10;;;15.50;86.60;;;;;;5090740;28;20047;-47
2022/05/08 10:17:46;;;;;;;11.40;1.65;;;15.60;87.60;;;;;;5083790;28;20051;-50
2022/05/08 10:20:11;;;;;;;33.17;2.70;;;15.70;85.50;;;;;;5084320;28;20024;-47
2022/05/08 10:22:49;;;;;;;6.72;1.10;;;15.80;84.40;;;;;;5073221;28;20081;-48
2022/05/08 10:25:16;;;;;;;12.10;1.23;;;15.90;84.00;;;;;;5090497;28;20040;-47
2022/05/08 10:28:06;;;;;;;7.03;1.48;;;16.10;85.40;;;;;;5076748;28;20540;-47
2022/05/08 10:30:31;;;;;;;12.15;2.20;;;16.10;82.10;;;;;;5070430;28;20050;-48
2022/05/08 10:32:57;;;;;;;38.90;7.43;;;16.10;81.20;;;;;;5069032;28;20119;-49
2022/05/08 10:35:25;;;;;;;;;;;16.20;81.80;;;;;;5071231;28;20032;-49
2022/05/08 10:38:03;;;;;;;28.58;4.95;;;16.20;82.10;;;;;;5074574;28;20281;-47
2022/05/08 10:40:28;;;;;;;20.45;1.77;;;16.30;82.30;;;;;;5089669;28;20036;-48
2022/05/08 10:42:58;;;;;;;5.93;1.13;;;16.20;80.60;;;;;;5078428;28;20483;-49
2022/05/08 10:45:30;;;;;;;7.38;1.63;;;16.30;80.20;;;;;;5069347;28;20673;-50
2022/05/08 10:47:56;;;;;;;8.02;1.73;;;16.30;78.60;;;;;;5070265;28;20481;-48
2022/05/08 10:50:22;;;;;;;10.20;1.58;;;16.30;79.30;;;;;;5070413;28;20121;-48
2022/05/08 10:52:49;;;;;;;176.95;31.20;;;16.30;78.60;;;;;;5069456;28;20032;-50
2022/05/08 10:55:17;;;;;;;4.68;0.90;;;16.40;79.70;;;;;;5068653;28;20044;-47
2022/05/08 10:57:45;;;;;;;9.95;1.10;;;16.50;77.20;;;;;;5068210;28;20053;-49
2022/05/08 11:00:22;;;;;;;9.23;1.38;;;16.60;78.00;;;;;;5070434;28;20044;-47
2022/05/08 11:02:57;;;;;;;6.70;1.40;;;16.70;76.50;;;;;;5071405;28;20033;-50
2022/05/08 11:05:25;;;;;;;7.18;1.05;;;16.70;75.90;;;;;;5069448;28;20517;-49
2022/05/08 11:08:02;;;;;;;6.82;1.50;;;16.90;75.50;;;;;;5068436;28;20048;-50
2022/05/08 11:10:28;;;;;;;7.40;1.52;;;16.90;73.00;;;;;;5069448;28;20509;-49
2022/05/08 11:12:59;;;;;;;10.05;1.83;;;16.90;75.10;;;;;;5069886;28;20037;-47
2022/05/08 11:15:28;;;;;;;13.48;2.15;;;16.90;75.00;;;;;;5068578;28;20044;-47
2022/05/08 11:18:15;;;;;;;182.43;32.58;;;17.00;74.50;;;;;;5080646;28;20085;-48
2022/05/08 11:20:59;;;;;;;5.90;1.25;;;17.00;74.90;;;;;;5069588;28;20086;-48
2022/05/08 11:23:45;;;;;;;5.40;1.20;;;17.10;74.00;;;;;;5059271;28;20043;-48
2022/05/08 11:26:12;;;;;;;6.10;0.80;;;17.10;72.90;;;;;;5071192;28;20052;-48
2022/05/08 11:28:48;;;;;;;43.38;6.93;;;17.20;72.40;;;;;;5080420;28;20124;-50
2022/05/08 11:31:16;;;;;;;6.13;1.50;;;17.30;70.40;;;;;;5068422;28;20044;-50
2022/05/08 11:36:31;;;;;;;9.82;1.98;;;17.40;71.20;;;;;;5069500;28;20045;-49
2022/05/08 11:38:58;;;;;;;9.00;0.98;;;17.50;71.10;;;;;;5069444;28;20039;-48
2022/05/08 11:41:32;;;;;;;9.07;1.17;;;17.50;70.80;;;;;;5068494;28;20079;-51
2022/05/08 11:44:02;;;;;;;6.78;1.15;;;17.50;70.40;;;;;;5069073;28;20071;-47
2022/05/08 11:46:48;;;;;;;7.85;2.05;;;17.50;70.60;;;;;;5075613;28;20404;-50
2022/05/08 11:49:15;;;;;;;7.78;1.23;;;17.60;68.70;;;;;;5076050;28;20040;-49
2022/05/08 11:51:44;;;;;;;4.47;0.90;;;17.60;70.30;;;;;;5069701;28;20489;-51
2022/05/08 11:54:17;;;;;;;3.58;0.60;;;17.70;71.00;;;;;;5073049;28;20033;-50
2022/05/08 11:56:42;;;;;;;11.32;1.50;;;17.80;69.20;;;;;;5072542;28;20048;-48
2022/05/08 11:59:16;;;;;;;3.33;0.70;;;17.80;70.20;;;;;;5079698;28;20633;-48
2022/05/08 12:01:52;;;;;;;10.70;0.80;;;17.90;68.50;;;;;;5092038;28;20119;-52
2022/05/08 12:04:28;;;;;;;6.57;1.20;;;18.00;67.30;;;;;;5073359;28;20037;-51
2022/05/08 12:07:03;;;;;;;10.35;1.65;;;18.10;66.00;;;;;;5073074;28;20032;-47
2022/05/08 12:09:30;;;;;;;14.35;0.73;;;18.00;67.30;;;;;;5072179;28;20404;-48
2022/05/08 12:11:56;;;;;;;8.57;0.88;;;18.00;66.50;;;;;;5071232;28;20040;-47
2022/05/08 12:14:31;;;;;;;6.78;1.02;;;18.00;67.30;;;;;;5072391;28;20428;-48
2022/05/08 12:17:01;;;;;;;9.00;1.88;;;18.10;67.30;;;;;;5072403;28;20402;-47
2022/05/08 12:19:27;;;;;;;2.97;0.60;;;18.10;65.40;;;;;;5085073;28;20401;-48
2022/05/08 12:21:54;;;;;;;8.77;1.27;;;18.10;65.10;;;;;;5093133;28;20050;-48
2022/05/08 12:24:21;;;;;;;5.45;0.70;;;18.10;64.40;;;;;;5079543;28;20079;-47
2022/05/08 12:26:48;;;;;;;6.75;0.80;;;18.10;64.40;;;;;;5075832;28;20501;-48
2022/05/08 12:29:18;;;;;;;11.02;1.23;;;18.10;64.80;;;;;;5092470;28;20466;-48
2022/05/08 12:31:44;;;;;;;5.05;0.90;;;18.20;64.30;;;;;;5090246;28;20052;-48
2022/05/08 12:34:12;;;;;;;8.90;0.93;;;18.20;63.10;;;;;;5093388;28;20047;-48
2022/05/08 12:36:40;;;;;;;4.72;1.13;;;18.10;62.50;;;;;;5076238;28;20037;-48
2022/05/08 12:39:07;;;;;;;8.50;0.95;;;18.10;63.90;;;;;;5071226;28;20108;-47
2022/05/08 12:41:33;;;;;;;5.60;1.30;;;18.10;65.30;;;;;;5072210;28;20052;-48
2022/05/08 12:44:00;;;;;;;10.13;1.15;;;18.20;64.50;;;;;;5072614;28;20498;-47
2022/05/08 12:46:25;;;;;;;7.50;0.93;;;18.20;64.20;;;;;;5081052;28;20119;-48
2022/05/08 12:48:51;;;;;;;11.43;3.55;;;18.20;64.50;;;;;;5072100;28;20186;-47
2022/05/08 12:51:16;;;;;;;6.45;1.13;;;18.30;64.80;;;;;;5082683;28;20498;-48
2022/05/08 12:53:42;;;;;;;10.93;1.33;;;18.40;64.60;;;;;;5085981;28;20126;-49
2022/05/08 12:56:08;;;;;;;13.45;0.90;;;18.50;63.70;;;;;;5089323;28;20036;-47
2022/05/08 13:01:18;;;;;;;8.93;1.13;;;18.60;63.10;;;;;;5074526;28;20283;-47
2022/05/08 13:03:43;;;;;;;3.67;0.85;;;18.60;63.60;;;;;;5070365;28;20293;-47
2022/05/08 13:06:09;;;;;;;10.40;1.40;;;18.60;63.30;;;;;;5081570;28;20496;-48
2022/05/08 13:08:34;;;;;;;10.75;1.23;;;18.60;61.80;;;;;;5071616;28;20123;-50
2022/05/08 13:11:02;;;;;;;7.43;1.35;;;18.60;63.10;;;;;;5078275;28;20086;-48
2022/05/08 13:13:31;;;;;;;13.38;1.73;;;18.60;62.80;;;;;;5072028;28;20052;-47
2022/05/08 13:15:57;;;;;;;4.80;0.82;;;18.60;63.50;;;;;;5071477;28;20162;-47
2022/05/08 13:18:23;;;;;;;6.47;1.20;;;18.70;63.20;;;;;;5086949;28;20058;-50
2022/05/08 13:20:49;;;;;;;10.25;1.55;;;18.80;62.90;;;;;;5072117;28;20493;-54